Chapman Ranch, TX (78347)

8:14 PM CDT on June 27, 2017 (GMT -0500)
South Side | | Change Station

Elev 26 ft 27.64 °N, 97.41 °W | Updated 7 minutes ago

Partly Cloudy
Partly Cloudy
83.8 °F
Feels Like 91 °F
N
11.2
Wind Variable Wind from NE
Gusts 21.1 mph

Today
High -- | Low -- °F
--% Chance of Precip.
Yesterday
High -- | Low -- °F
Precip. -- in
Pressure 29.87 in
Visibility 10.0 miles
Clouds Few 1600 ft
Few 5000 ft
Scattered Clouds 8000 ft
Scattered Clouds 25000 ft
Heat Index 91 °F
Dew Point 75 °F
Humidity 74%
Rainfall 0.68 in
Snow Depth Not available.
6:36 AM 8:29 PM
Waxing Crescent, 20% visible
METAR KNGP 280056Z 09008KT 10SM FEW016 FEW050 SCT080 SCT250 28/24 A2987 RMK AO2 RAB42E54 SLP113 T2 SET P0000 T02780244
Pressure 29.87 in
Visibility 10.0 miles
Clouds Few 1600 ft
Few 5000 ft
Scattered Clouds 8000 ft
Scattered Clouds 25000 ft
Heat Index 91 °F
Dew Point 75 °F
Humidity 74%
Rainfall 0.68 in
Snow Depth Not available.
6:36 AM 8:29 PM
Waxing Crescent, 20% visible
METAR KNGP 280056Z 09008KT 10SM FEW016 FEW050 SCT080 SCT250 28/24 A2987 RMK AO2 RAB42E54 SLP113 T2 SET P0000 T02780244

Get Severe Weather Alerts

Thanks for signing up!

Be on the lookout for a verification email in your inbox.

You'll start receiving the daily forecast at 6 AM.

×

10-Day Weather Forecast

Almanac

Astronomy

Jun. 27, 2017 Rise Set
Actual Time
Civil Twilight
Nautical Twilight
Astronomical Twilight
Moon
Length of Visible Light
Length of Day
Tomorrow will be .
, % of the Moon is Illuminated

Today's Extremes

State Highs State Lows

Community

WunderPhotos

Category 6

Welcome to Category 6. This is the collective home for Weather Underground's featured writeups by Dr. Jeff Masters (right), Bob Henson (left), Chris Burt, and other regular contributors.

Nearby

Air Quality

  Air Quality AQ Index Pollutant
Not available.

Snow Depth

Station Depth Elevation

Earthquake Activity

City Distance Mag. Time & Date
Minimum magnitude displayed is 2.5.

Coastal Water Temperatures

Place Temperature

Stations

Nearby Weather Stations

Station Location Temp. Windchill Dew Point Humidity Wind Precip. Elev Updated Type
                   

Watches & Warnings

There are currently no watches in effect.